Time;durP1;ratioP1;P1;durP2;ratioP2;P2;SDS_P1;SDS_P2;PMS_P1;PMS_P2;Temp;Humidity;BMP_temperature;BMP_pressure;BME280_temperature;BME280_humidity;BME280_pressure;Samples;Min_cycle;Max_cycle;Signal;HPM_P1;HPM_P2
2022/08/15 00:01:06;;;;;;;9.40;7.13;;;23.30;99.90;;;;;;5034690;28;20559;-68
2022/08/15 00:03:43;;;;;;;9.80;7.27;;;23.30;99.90;;;;;;5035163;28;20049;-68
2022/08/15 00:06:14;;;;;;;9.60;7.30;;;23.30;99.90;;;;;;5018074;28;20381;-68
2022/08/15 00:08:44;;;;;;;7.73;6.60;;;23.30;99.90;;;;;;5035170;28;20053;-68
2022/08/15 00:11:17;;;;;;;8.50;7.60;;;23.30;99.90;;;;;;5034829;28;20064;-68
2022/08/15 00:13:45;;;;;;;9.40;7.20;;;23.30;99.90;;;;;;5017286;28;20041;-68
2022/08/15 00:16:13;;;;;;;8.80;7.77;;;23.30;99.90;;;;;;5034390;28;20118;-68
2022/08/15 00:18:42;;;;;;;8.30;7.47;;;23.30;99.90;;;;;;5034275;28;20044;-68
2022/08/15 00:21:10;;;;;;;12.73;7.77;;;23.30;99.90;;;;;;5034358;28;20453;-68
2022/08/15 00:23:39;;;;;;;9.60;7.67;;;23.30;99.90;;;;;;5034763;28;20494;-68
2022/08/15 00:26:05;;;;;;;9.03;7.73;;;23.30;99.90;;;;;;5034801;28;20061;-68
2022/08/15 00:28:31;;;;;;;9.33;7.97;;;23.30;99.90;;;;;;5034214;28;20045;-68
2022/08/15 00:30:57;;;;;;;11.03;7.70;;;23.30;99.90;;;;;;5034396;28;20049;-68
2022/08/15 00:33:22;;;;;;;9.20;8.03;;;23.30;99.90;;;;;;5033418;28;20052;-68
2022/08/15 00:35:50;;;;;;;11.47;8.07;;;23.30;99.90;;;;;;5034925;28;20052;-68
2022/08/15 00:38:20;;;;;;;8.33;7.47;;;23.30;99.90;;;;;;5034009;28;20077;-68
2022/08/15 00:43:39;;;;;;;10.10;7.83;;;23.30;99.90;;;;;;5017100;28;20401;-68
2022/08/15 00:46:08;;;;;;;8.70;7.80;;;23.20;99.90;;;;;;4996341;28;20497;-68
2022/08/15 00:48:42;;;;;;;12.20;9.37;;;23.20;99.90;;;;;;4997313;28;20545;-68
2022/08/15 00:51:37;;;;;;;11.27;8.80;;;23.20;99.90;;;;;;5014173;28;20081;-68
2022/08/15 00:54:15;;;;;;;9.27;8.30;;;23.10;99.90;;;;;;5011100;28;20061;-68
2022/08/15 00:56:49;;;;;;;14.37;8.63;;;23.20;99.90;;;;;;5014162;28;20104;-68
2022/08/15 00:59:19;;;;;;;9.87;8.63;;;23.10;99.90;;;;;;5014052;28;20046;-68
2022/08/15 01:01:46;;;;;;;9.17;8.17;;;23.10;99.90;;;;;;5014042;28;20050;-68
2022/08/15 01:04:14;;;;;;;12.07;8.80;;;23.10;99.90;;;;;;5014768;28;20057;-68
2022/08/15 01:06:40;;;;;;;10.57;8.67;;;23.10;99.90;;;;;;5013949;28;20045;-68
2022/08/15 01:09:07;;;;;;;9.63;8.00;;;23.00;99.90;;;;;;5012747;28;20042;-68
2022/08/15 01:11:43;;;;;;;8.80;7.70;;;22.90;99.90;;;;;;5013845;28;20050;-68
2022/08/15 01:14:09;;;;;;;11.03;8.57;;;23.00;99.90;;;;;;5013641;28;20049;-68
2022/08/15 01:16:38;;;;;;;10.40;8.73;;;22.90;99.90;;;;;;5013803;28;20038;-68
2022/08/15 01:19:11;;;;;;;10.07;8.23;;;22.90;99.90;;;;;;5013776;28;20504;-68
2022/08/15 01:21:48;;;;;;;10.27;8.40;;;22.90;99.90;;;;;;5013532;28;20378;-68
2022/08/15 01:24:41;;;;;;;10.77;9.53;;;22.80;99.90;;;;;;5013672;28;20187;-68
2022/08/15 01:27:09;;;;;;;10.23;9.17;;;22.70;99.90;;;;;;5014288;28;20467;-68
2022/08/15 01:29:35;;;;;;;13.13;9.20;;;22.70;99.90;;;;;;5012251;28;20490;-68
2022/08/15 01:32:00;;;;;;;9.97;8.97;;;22.70;99.90;;;;;;5012564;28;20057;-68
2022/08/15 01:34:26;;;;;;;13.07;8.87;;;22.70;99.90;;;;;;5013607;28;20049;-68
2022/08/15 01:36:52;;;;;;;9.83;8.63;;;22.70;99.90;;;;;;4997097;28;20045;-68
2022/08/15 01:39:40;;;;;;;9.43;8.43;;;22.70;99.90;;;;;;5013591;28;20056;-68
2022/08/15 01:42:08;;;;;;;9.70;8.67;;;22.60;99.90;;;;;;5013559;28;20085;-68
2022/08/15 01:44:43;;;;;;;13.80;9.70;;;22.50;99.90;;;;;;5019171;28;20057;-68
2022/08/15 01:47:27;;;;;;;;;;;22.50;99.90;;;;;;5020579;28;20053;-68
2022/08/15 01:50:12;;;;;;;11.20;9.07;;;22.50;99.90;;;;;;5037513;28;19921;-68
2022/08/15 01:52:54;;;;;;;9.98;9.00;;;22.50;99.90;;;;;;5037142;28;20107;-68
2022/08/15 01:55:42;;;;;;;9.73;8.73;;;22.40;99.90;;;;;;5037579;28;20125;-68
2022/08/15 01:58:08;;;;;;;11.23;9.37;;;22.50;99.90;;;;;;5036246;28;20053;-68
2022/08/15 02:00:36;;;;;;;11.97;9.83;;;22.40;99.90;;;;;;5019801;28;20072;-68
2022/08/15 02:03:03;;;;;;;11.13;10.03;;;22.40;99.90;;;;;;5019452;28;20053;-68
2022/08/15 02:05:30;;;;;;;11.70;10.47;;;22.30;99.90;;;;;;5036909;28;20046;-68
2022/08/15 02:07:56;;;;;;;12.90;11.03;;;22.30;99.90;;;;;;5036900;28;20045;-68
2022/08/15 02:10:22;;;;;;;13.60;10.97;;;22.30;99.90;;;;;;5036862;28;20155;-68
2022/08/15 02:12:49;;;;;;;11.87;10.63;;;22.30;99.90;;;;;;5019198;28;20132;-68
2022/08/15 02:15:19;;;;;;;13.07;11.07;;;22.30;99.90;;;;;;5019121;28;20052;-68
2022/08/15 02:17:45;;;;;;;13.83;10.87;;;22.30;99.90;;;;;;5036714;28;20095;-68
2022/08/15 02:20:13;;;;;;;13.60;11.30;;;22.20;99.90;;;;;;5036582;28;20037;-68
2022/08/15 02:22:39;;;;;;;12.73;11.43;;;22.30;99.90;;;;;;5036494;28;20053;-68
2022/08/15 02:25:07;;;;;;;13.33;11.93;;;22.20;99.90;;;;;;5036198;28;20049;-68
2022/08/15 02:27:35;;;;;;;13.77;12.37;;;22.30;99.90;;;;;;5019232;28;20049;-68
2022/08/15 02:30:14;;;;;;;13.93;12.37;;;22.30;99.90;;;;;;5036550;28;20084;-68
2022/08/15 02:32:41;;;;;;;15.90;14.30;;;22.30;99.90;;;;;;5036725;28;20080;-68
2022/08/15 02:35:08;;;;;;;14.37;12.93;;;22.30;99.90;;;;;;5036890;28;20049;-68
2022/08/15 02:37:34;;;;;;;17.27;14.10;;;22.20;99.90;;;;;;5036252;28;20046;-68
2022/08/15 02:40:00;;;;;;;17.10;15.10;;;22.20;99.90;;;;;;5037005;28;20129;-68
2022/08/15 02:42:26;;;;;;;18.13;15.97;;;22.20;99.90;;;;;;5036238;28;20396;-67
2022/08/15 02:44:52;;;;;;;16.83;15.10;;;22.20;99.90;;;;;;5035929;28;20053;-68
2022/08/15 02:47:19;;;;;;;18.87;16.93;;;22.20;99.90;;;;;;5036114;28;20045;-67
2022/08/15 02:49:46;;;;;;;17.43;15.70;;;22.20;99.90;;;;;;5018401;28;20045;-68
2022/08/15 02:52:12;;;;;;;17.27;15.47;;;22.20;99.90;;;;;;5036046;28;20520;-68
2022/08/15 02:54:40;;;;;;;18.13;16.10;;;22.30;99.90;;;;;;5036000;28;20209;-68
2022/08/15 02:57:07;;;;;;;17.87;15.97;;;22.30;99.90;;;;;;5035278;28;20092;-68
2022/08/15 02:59:32;;;;;;;17.63;15.77;;;22.30;99.90;;;;;;5035775;28;20060;-68
2022/08/15 03:01:59;;;;;;;17.70;15.83;;;22.20;99.90;;;;;;5002860;28;20037;-68
2022/08/15 03:04:26;;;;;;;18.53;16.57;;;22.20;99.90;;;;;;5035852;28;20132;-68
2022/08/15 03:06:53;;;;;;;19.90;18.00;;;22.20;99.90;;;;;;5035748;28;20038;-68
2022/08/15 03:09:21;;;;;;;20.17;18.07;;;22.20;99.90;;;;;;5018028;28;20038;-68
2022/08/15 03:11:47;;;;;;;19.30;17.27;;;22.20;99.90;;;;;;5036366;28;20049;-68
2022/08/15 03:14:16;;;;;;;19.80;17.83;;;22.20;99.90;;;;;;5035636;28;20056;-68
2022/08/15 03:16:45;;;;;;;21.00;17.80;;;22.20;99.90;;;;;;5035240;28;20493;-68
2022/08/15 03:19:20;;;;;;;21.57;17.83;;;22.20;99.90;;;;;;5017902;28;20052;-68
2022/08/15 03:21:48;;;;;;;19.20;17.37;;;22.20;99.90;;;;;;5035657;28;20469;-68
2022/08/15 03:24:15;;;;;;;21.27;19.23;;;22.20;99.90;;;;;;5018064;28;20124;-68
2022/08/15 03:26:46;;;;;;;20.63;18.03;;;22.20;99.90;;;;;;5018131;28;20076;-68
2022/08/15 03:29:18;;;;;;;21.03;18.70;;;22.10;99.90;;;;;;5035421;28;20125;-68
2022/08/15 03:31:47;;;;;;;20.07;17.93;;;22.10;99.90;;;;;;5035322;28;20057;-68
2022/08/15 03:34:15;;;;;;;20.27;17.40;;;22.00;99.90;;;;;;5017765;28;20046;-67
2022/08/15 03:36:44;;;;;;;19.43;17.23;;;22.00;99.90;;;;;;5035221;28;20124;-68
2022/08/15 03:39:10;;;;;;;20.07;18.07;;;22.00;99.90;;;;;;5001738;28;20046;-68
2022/08/15 03:41:36;;;;;;;19.47;16.97;;;22.00;99.90;;;;;;5017683;28;20357;-68
2022/08/15 03:44:02;;;;;;;18.97;17.07;;;22.00;99.90;;;;;;5035327;28;20128;-68
2022/08/15 03:46:28;;;;;;;19.57;17.67;;;22.00;99.90;;;;;;5035675;28;20459;-68
2022/08/15 03:48:56;;;;;;;20.00;17.97;;;21.90;99.90;;;;;;5034974;28;20128;-68
2022/08/15 03:51:23;;;;;;;20.13;18.13;;;21.90;99.90;;;;;;5034972;28;20061;-68
2022/08/15 03:53:52;;;;;;;19.67;17.30;;;21.90;99.90;;;;;;5034909;28;20049;-68
2022/08/15 03:56:26;;;;;;;18.60;16.70;;;21.90;99.90;;;;;;5034498;28;20497;-68
2022/08/15 03:58:53;;;;;;;18.40;16.50;;;21.90;99.90;;;;;;5035250;28;20128;-68
2022/08/15 04:01:23;;;;;;;18.33;16.43;;;21.90;99.90;;;;;;5034668;28;20052;-68
2022/08/15 04:03:50;;;;;;;16.90;15.07;;;21.80;99.90;;;;;;5034666;28;20041;-68
2022/08/15 04:06:19;;;;;;;18.63;16.20;;;21.80;99.90;;;;;;5035390;28;20080;-68
2022/08/15 04:08:47;;;;;;;16.67;15.07;;;21.80;99.90;;;;;;5033843;28;20365;-68
2022/08/15 04:11:15;;;;;;;16.67;15.03;;;21.80;99.90;;;;;;5034752;28;20159;-68
2022/08/15 04:13:43;;;;;;;16.97;15.27;;;21.70;99.90;;;;;;5034459;28;20049;-68
2022/08/15 04:16:09;;;;;;;17.23;15.53;;;21.70;99.90;;;;;;5034405;28;20084;-68
2022/08/15 04:18:36;;;;;;;16.57;14.97;;;21.70;99.90;;;;;;5034309;28;20052;-68
2022/08/15 04:21:05;;;;;;;17.77;16.03;;;21.70;99.90;;;;;;5034318;28;20107;-68
2022/08/15 04:23:32;;;;;;;17.33;15.53;;;21.70;99.90;;;;;;5034578;28;20080;-68
2022/08/15 04:25:58;;;;;;;16.23;14.67;;;21.80;99.90;;;;;;5034167;28;20051;-68
2022/08/15 04:28:26;;;;;;;17.10;15.33;;;21.70;99.90;;;;;;5034154;28;20136;-68
2022/08/15 04:30:52;;;;;;;14.83;13.30;;;21.70;99.90;;;;;;5034870;28;20081;-68
2022/08/15 04:33:23;;;;;;;16.93;15.20;;;21.70;99.90;;;;;;5034593;28;20092;-66
2022/08/15 04:35:52;;;;;;;16.33;14.43;;;21.70;99.90;;;;;;5017326;28;20064;-66
2022/08/15 04:38:18;;;;;;;17.07;15.43;;;21.70;99.90;;;;;;5033808;28;20053;-67
2022/08/15 04:40:45;;;;;;;17.63;15.67;;;21.70;99.90;;;;;;5034773;28;20072;-67
2022/08/15 04:43:11;;;;;;;18.30;16.47;;;21.70;99.90;;;;;;5033962;28;20128;-67
2022/08/15 04:45:40;;;;;;;16.57;14.40;;;21.70;99.90;;;;;;5033543;28;20069;-67
2022/08/15 04:48:06;;;;;;;16.87;14.93;;;21.70;99.90;;;;;;5033523;28;20439;-67
2022/08/15 04:50:36;;;;;;;17.73;16.03;;;21.70;99.90;;;;;;5033680;28;20191;-67
2022/08/15 04:53:04;;;;;;;16.77;15.07;;;21.70;99.90;;;;;;5034334;28;20037;-67
2022/08/15 04:55:30;;;;;;;19.33;14.93;;;21.80;99.90;;;;;;5033738;28;20128;-67
2022/08/15 04:57:57;;;;;;;16.87;15.23;;;21.80;99.90;;;;;;5033660;28;20049;-67
2022/08/15 05:00:27;;;;;;;17.47;14.93;;;21.80;99.90;;;;;;5033315;28;20509;-67
2022/08/15 05:03:02;;;;;;;16.20;14.60;;;21.80;99.90;;;;;;5033640;28;20140;-67
2022/08/15 05:05:30;;;;;;;15.47;13.27;;;21.90;99.90;;;;;;5034272;28;20049;-67
2022/08/15 05:07:55;;;;;;;16.37;14.77;;;21.90;99.90;;;;;;5033578;28;20052;-68
2022/08/15 05:10:21;;;;;;;15.97;14.27;;;22.00;99.90;;;;;;5033520;28;20367;-67
2022/08/15 05:12:47;;;;;;;14.37;12.97;;;22.00;99.90;;;;;;5033517;28;20052;-67
2022/08/15 05:15:15;;;;;;;15.53;13.93;;;22.10;99.90;;;;;;5033184;28;20052;-67
2022/08/15 05:17:41;;;;;;;14.40;13.03;;;22.10;99.90;;;;;;5016366;28;20381;-67
2022/08/15 05:20:08;;;;;;;13.90;12.60;;;22.10;99.90;;;;;;5033544;28;20120;-68
2022/08/15 05:22:34;;;;;;;14.63;13.13;;;22.20;99.90;;;;;;5033451;28;20050;-67
2022/08/15 05:24:59;;;;;;;14.53;13.10;;;22.20;99.90;;;;;;5033390;28;20384;-68
2022/08/15 05:27:25;;;;;;;14.67;13.20;;;22.30;99.90;;;;;;5015768;28;20147;-67
2022/08/15 05:29:51;;;;;;;14.70;13.13;;;22.30;99.90;;;;;;5033407;28;20098;-67
2022/08/15 05:32:18;;;;;;;13.97;12.40;;;22.40;99.90;;;;;;5033363;28;20133;-67
2022/08/15 05:34:47;;;;;;;14.57;13.07;;;22.50;99.90;;;;;;5034197;28;20075;-67
2022/08/15 05:37:14;;;;;;;15.37;13.23;;;22.50;99.90;;;;;;5033297;28;20053;-68
2022/08/15 05:39:42;;;;;;;13.47;12.17;;;22.60;99.90;;;;;;5033209;28;20081;-67
2022/08/15 05:42:42;;;;;;;13.43;12.13;;;22.70;99.90;;;;;;5033735;28;20057;-67
2022/08/15 05:45:19;;;;;;;13.10;11.80;;;22.80;99.90;;;;;;5033095;28;20412;-68
2022/08/15 05:47:55;;;;;;;14.30;12.83;;;22.90;99.90;;;;;;5034022;28;20083;-67
2022/08/15 05:50:33;;;;;;;13.67;12.37;;;23.00;99.90;;;;;;5015621;28;20044;-67
2022/08/15 05:53:15;;;;;;;14.63;12.50;;;23.10;99.90;;;;;;5033167;28;20147;-68
2022/08/15 05:56:04;;;;;;;15.40;13.70;;;23.30;99.90;;;;;;5033224;28;20053;-67
2022/08/15 05:58:50;;;;;;;14.50;13.10;;;23.70;99.90;;;;;;5033093;28;20046;-67
2022/08/15 06:01:20;;;;;;;14.20;12.90;;;24.10;99.90;;;;;;5033130;28;20056;-67
2022/08/15 06:03:56;;;;;;;14.73;13.33;;;24.30;99.90;;;;;;5033381;28;20115;-68
2022/08/15 06:06:28;;;;;;;14.10;12.77;;;24.60;99.90;;;;;;5033117;28;20057;-68
2022/08/15 06:09:15;;;;;;;14.67;13.27;;;24.70;99.90;;;;;;5033715;28;20370;-67
2022/08/15 06:11:45;;;;;;;14.97;13.43;;;24.80;99.90;;;;;;5033052;28;20128;-68
2022/08/15 06:14:33;;;;;;;14.83;12.80;;;24.90;99.90;;;;;;5015581;28;20427;-68
2022/08/15 06:17:12;;;;;;;15.43;13.80;;;24.90;99.90;;;;;;5033248;28;20076;-68
2022/08/15 06:19:42;;;;;;;16.60;13.87;;;24.90;99.90;;;;;;5032982;28;20467;-68
2022/08/15 06:22:33;;;;;;;16.60;15.00;;;25.00;99.90;;;;;;5015741;28;20056;-68
2022/08/15 06:25:27;;;;;;;15.37;13.20;;;25.00;99.60;;;;;;5032908;28;20054;-68
2022/08/15 06:28:28;;;;;;;14.88;13.27;;;25.10;99.40;;;;;;5030655;28;20145;-68
2022/08/15 06:31:30;;;;;;;15.83;14.27;;;25.40;98.80;;;;;;5023150;28;20058;-68
2022/08/15 06:34:07;;;;;;;18.87;14.00;;;25.60;97.40;;;;;;5019446;28;20060;-68
2022/08/15 06:36:56;;;;;;;15.03;13.47;;;26.20;97.50;;;;;;5018993;28;20382;-68
2022/08/15 06:39:38;;;;;;;15.13;13.63;;;26.90;95.50;;;;;;5037038;28;20067;-68
2022/08/15 06:42:21;;;;;;;16.53;12.27;;;27.80;92.10;;;;;;5036301;28;20049;-68
2022/08/15 06:44:52;;;;;;;14.27;12.07;;;28.50;89.90;;;;;;5036210;28;20072;-68
2022/08/15 06:47:21;;;;;;;13.90;12.30;;;29.30;83.90;;;;;;5036155;28;20310;-68
2022/08/15 06:49:52;;;;;;;13.80;12.20;;;29.50;80.50;;;;;;5036359;28;20381;-68
2022/08/15 06:52:19;;;;;;;12.77;11.03;;;29.70;76.50;;;;;;5036085;28;20053;-68
2022/08/15 06:54:45;;;;;;;14.30;11.35;;;29.60;74.70;;;;;;5036033;28;20037;-68
2022/08/15 06:57:28;;;;;;;15.38;11.65;;;29.80;73.50;;;;;;5035909;28;20131;-69
2022/08/15 07:00:19;;;;;;;12.13;10.85;;;30.30;69.40;;;;;;5002239;28;20045;-69
2022/08/15 07:03:04;;;;;;;12.82;10.35;;;;;;;;;;5036563;28;20046;-69
2022/08/15 07:05:42;;;;;;;11.20;9.98;;;31.80;59.70;;;;;;5035829;28;20041;-69
2022/08/15 07:08:16;;;;;;;11.95;9.30;;;;;;;;;;5035735;28;20045;-69
2022/08/15 07:10:45;;;;;;;13.55;9.35;;;;;;;;;;5035710;28;20053;-69
2022/08/15 07:13:23;;;;;;;9.85;8.82;;;33.40;53.90;;;;;;5035630;28;20079;-69
2022/08/15 07:15:56;;;;;;;11.82;9.95;;;33.50;55.20;;;;;;5035720;28;20068;-69
2022/08/15 07:18:30;;;;;;;9.38;8.45;;;32.70;54.90;;;;;;5018128;28;20068;-69
2022/08/15 07:21:07;;;;;;;10.52;9.50;;;31.80;55.70;;;;;;5018155;28;20045;-69
2022/08/15 07:23:34;;;;;;;12.15;9.75;;;30.90;58.00;;;;;;5035567;28;20093;-69
2022/08/15 07:26:11;;;;;;;12.07;8.98;;;;;;;;;;5035430;28;20114;-69
2022/08/15 07:28:42;;;;;;;11.13;10.02;;;29.70;93.80;;;;;;5036022;28;20119;-69
2022/08/15 07:31:23;;;;;;;12.00;10.45;;;29.80;88.20;;;;;;5035622;28;20045;-69
2022/08/15 07:33:50;;;;;;;12.02;9.85;;;29.80;87.90;;;;;;5035042;28;20481;-69
2022/08/15 07:36:25;;;;;;;10.82;9.80;;;29.90;88.00;;;;;;5035275;28;20096;-69
2022/08/15 07:38:51;;;;;;;;;;;30.20;87.70;;;;;;5035599;28;20104;-69
2022/08/15 07:41:26;;;;;;;10.48;9.48;;;30.70;62.40;;;;;;5034949;28;20385;-69
2022/08/15 07:44:22;;;;;;;10.23;9.23;;;31.20;61.30;;;;;;5035198;28;20056;-69
2022/08/15 07:47:06;;;;;;;9.88;8.88;;;31.60;59.00;;;;;;5035395;28;20049;-69
2022/08/15 07:49:34;;;;;;;8.82;7.95;;;32.20;57.30;;;;;;5035044;28;20041;-69
2022/08/15 07:52:15;;;;;;;9.35;8.45;;;32.70;86.70;;;;;;5034952;28;20053;-69
2022/08/15 07:54:41;;;;;;;10.55;9.07;;;;;;;;;;5017259;28;20056;-69
2022/08/15 07:57:29;;;;;;;10.88;8.95;;;33.30;53.90;;;;;;5034546;28;20500;-69
2022/08/15 08:00:09;;;;;;;9.57;8.65;;;33.50;53.60;;;;;;5034832;28;20049;-68
2022/08/15 08:03:09;;;;;;;10.55;9.43;;;33.40;53.00;;;;;;5035030;28;20488;-68
2022/08/15 08:05:43;;;;;;;9.07;8.15;;;33.50;51.00;;;;;;5034790;28;20496;-69
2022/08/15 08:08:09;;;;;;;11.80;8.13;;;33.30;52.20;;;;;;5017476;28;20049;-66
2022/08/15 08:10:52;;;;;;;8.05;7.25;;;33.10;52.80;;;;;;5035103;28;20098;-67
2022/08/15 08:13:41;;;;;;;9.23;7.68;;;33.00;52.80;;;;;;5034630;28;20051;-68
2022/08/15 08:16:29;;;;;;;9.95;8.48;;;32.70;53.60;;;;;;5034567;28;20100;-68
2022/08/15 08:19:30;;;;;;;10.23;8.77;;;32.60;53.80;;;;;;5035266;28;20045;-68
2022/08/15 08:22:22;;;;;;;10.32;9.32;;;32.10;55.00;;;;;;5034168;28;20500;-67
2022/08/15 08:24:52;;;;;;;10.63;9.30;;;31.80;55.70;;;;;;5016821;28;20065;-67
2022/08/15 08:27:57;;;;;;;10.18;9.27;;;31.60;56.00;;;;;;5033953;28;20550;-67
2022/08/15 08:30:24;;;;;;;;;;;31.20;55.90;;;;;;5034665;28;20056;-67
2022/08/15 08:32:59;;;;;;;11.38;10.23;;;30.70;57.00;;;;;;5034149;28;19920;-66
2022/08/15 08:35:41;;;;;;;11.48;9.70;;;30.50;56.60;;;;;;5034144;28;20060;-67
2022/08/15 08:38:40;;;;;;;12.48;10.00;;;30.40;57.40;;;;;;5034951;28;20048;-67
2022/08/15 08:41:35;;;;;;;12.25;10.15;;;30.30;58.00;;;;;;5034656;28;20436;-68
2022/08/15 08:44:14;;;;;;;9.65;8.75;;;30.40;58.00;;;;;;5026206;28;20199;-68
2022/08/15 08:46:55;;;;;;;10.07;8.77;;;30.30;58.30;;;;;;5034324;28;20097;-67
2022/08/15 08:49:33;;;;;;;10.30;8.70;;;30.10;57.90;;;;;;5033863;28;20038;-68
2022/08/15 08:52:09;;;;;;;8.43;7.53;;;29.90;57.90;;;;;;5034014;28;20052;-67
2022/08/15 08:55:00;;;;;;;11.25;7.90;;;29.90;57.30;;;;;;5033292;28;20088;-67
2022/08/15 08:57:41;;;;;;;7.80;6.65;;;29.70;57.20;;;;;;5033789;28;20050;-67
2022/08/15 09:00:17;;;;;;;8.05;7.28;;;29.60;57.10;;;;;;5016377;28;20107;-70
2022/08/15 09:02:51;;;;;;;10.10;7.40;;;29.50;57.10;;;;;;5016693;28;20128;-70
2022/08/15 09:05:36;;;;;;;10.13;6.70;;;29.40;57.40;;;;;;5033735;28;20132;-71
2022/08/15 09:08:14;;;;;;;9.75;7.47;;;29.50;57.60;;;;;;5033687;28;20045;-70
2022/08/15 09:10:44;;;;;;;11.23;8.73;;;29.60;58.40;;;;;;5034168;28;20048;-71
2022/08/15 09:13:30;;;;;;;10.10;8.63;;;29.60;58.90;;;;;;5033607;28;20042;-73
2022/08/15 09:16:00;;;;;;;9.48;8.48;;;29.70;59.40;;;;;;5034465;28;20444;-70
2022/08/15 09:18:43;;;;;;;9.80;8.80;;;29.70;59.60;;;;;;5033426;28;20563;-71
2022/08/15 09:21:09;;;;;;;11.52;9.13;;;29.70;60.70;;;;;;5034396;28;20068;-72
2022/08/15 09:23:38;;;;;;;13.43;9.45;;;29.60;60.80;;;;;;5016359;28;20049;-69
2022/08/15 09:26:33;;;;;;;11.32;9.55;;;29.60;60.60;;;;;;5034224;28;20107;-71
2022/08/15 09:29:05;;;;;;;;;;;29.50;60.40;;;;;;5034328;28;20033;-69
2022/08/15 09:31:35;;;;;;;11.10;9.38;;;29.40;60.80;;;;;;5033401;28;19921;-70
2022/08/15 09:34:35;;;;;;;10.35;8.57;;;29.40;61.30;;;;;;5015891;28;20045;-70
2022/08/15 09:37:16;;;;;;;10.63;8.02;;;29.60;61.50;;;;;;5033398;28;20103;-71
2022/08/15 09:40:25;;;;;;;9.52;8.25;;;29.70;61.60;;;;;;5033770;28;20377;-67
2022/08/15 09:43:04;;;;;;;11.55;8.45;;;29.70;60.80;;;;;;5034044;28;20053;-67
2022/08/15 09:45:39;;;;;;;11.25;8.25;;;29.70;60.90;;;;;;5033476;28;20131;-67
2022/08/15 09:48:24;;;;;;;15.57;8.95;;;29.70;60.80;;;;;;5033761;28;20041;-67
2022/08/15 09:51:17;;;;;;;14.80;8.65;;;29.60;60.90;;;;;;5033204;28;20049;-68
2022/08/15 09:54:05;;;;;;;9.48;8.48;;;29.70;61.10;;;;;;5034030;28;20064;-68
2022/08/15 09:56:36;;;;;;;10.18;9.10;;;29.60;61.20;;;;;;5033132;28;20050;-67
2022/08/15 09:59:24;;;;;;;9.10;8.30;;;29.60;61.50;;;;;;5033077;28;20048;-67
2022/08/15 10:01:56;;;;;;;13.43;8.38;;;29.60;61.10;;;;;;5033163;28;20045;-67
2022/08/15 10:04:49;;;;;;;10.48;8.85;;;29.70;61.30;;;;;;5033384;28;20045;-66
2022/08/15 10:07:15;;;;;;;8.93;7.75;;;29.70;61.10;;;;;;5036978;28;20049;-68
2022/08/15 10:10:00;;;;;;;8.10;7.30;;;29.70;61.10;;;;;;5019595;28;20132;-69
2022/08/15 10:12:28;;;;;;;9.40;8.50;;;29.70;61.30;;;;;;5036767;28;20050;-78
2022/08/15 10:15:01;;;;;;;9.38;7.90;;;29.80;61.60;;;;;;5019777;28;20592;-68
2022/08/15 10:17:34;;;;;;;8.82;7.90;;;29.80;62.10;;;;;;5037229;28;20057;-68
2022/08/15 10:20:19;;;;;;;9.95;8.82;;;29.90;61.90;;;;;;5036269;28;20128;-68
2022/08/15 10:22:59;;;;;;;10.43;9.40;;;29.80;61.90;;;;;;5036972;28;20060;-68
2022/08/15 10:25:36;;;;;;;9.85;8.45;;;29.80;62.50;;;;;;5036491;28;20484;-68
2022/08/15 10:28:11;;;;;;;11.35;9.80;;;29.90;62.40;;;;;;5036831;28;20049;-68
2022/08/15 10:30:45;;;;;;;10.23;9.23;;;29.90;62.40;;;;;;5036420;28;20053;-68
2022/08/15 10:33:33;;;;;;;9.77;8.65;;;29.90;62.60;;;;;;5019309;28;20061;-68
2022/08/15 10:36:16;;;;;;;9.57;8.55;;;30.00;62.10;;;;;;5036458;28;20053;-68
2022/08/15 10:38:51;;;;;;;10.20;9.20;;;30.00;62.70;;;;;;5036263;28;20507;-68
2022/08/15 10:41:32;;;;;;;13.02;8.30;;;30.00;63.20;;;;;;5036856;28;20052;-68
2022/08/15 10:44:41;;;;;;;11.80;10.52;;;30.10;63.30;;;;;;5036504;28;20061;-68
2022/08/15 10:47:26;;;;;;;11.10;10.10;;;30.10;63.20;;;;;;5035471;28;20104;-68
2022/08/15 10:49:57;;;;;;;;;;;29.90;63.30;;;;;;5036530;28;20038;-68
2022/08/15 10:52:38;;;;;;;11.32;10.23;;;29.90;64.00;;;;;;5036878;28;19921;-68
2022/08/15 10:55:27;;;;;;;12.95;8.90;;;29.80;64.20;;;;;;5018376;28;20053;-68
2022/08/15 10:58:16;;;;;;;10.32;9.43;;;29.60;64.40;;;;;;5036881;28;20392;-68
2022/08/15 11:00:51;;;;;;;11.68;9.20;;;29.50;64.60;;;;;;5021963;28;20061;-68
2022/08/15 11:03:35;;;;;;;12.35;9.38;;;29.40;65.40;;;;;;5035979;28;20493;-68
2022/08/15 11:06:05;;;;;;;10.45;9.38;;;29.30;66.00;;;;;;5036478;28;20089;-68
2022/08/15 11:08:34;;;;;;;10.07;9.07;;;29.20;66.00;;;;;;5035817;28;20086;-68
2022/08/15 11:11:07;;;;;;;9.90;8.90;;;29.10;66.10;;;;;;5035756;28;20049;-68
2022/08/15 11:13:35;;;;;;;12.40;9.70;;;29.00;66.70;;;;;;5036019;28;20049;-68
2022/08/15 11:16:16;;;;;;;11.85;9.00;;;28.90;67.30;;;;;;5035389;28;20132;-68
2022/08/15 11:18:53;;;;;;;10.35;9.25;;;28.80;68.60;;;;;;5036204;28;20041;-68
2022/08/15 11:21:43;;;;;;;10.75;9.65;;;28.70;69.40;;;;;;5035554;28;20477;-67
2022/08/15 11:24:09;;;;;;;11.57;9.48;;;28.70;70.40;;;;;;5035996;28;20053;-69
2022/08/15 11:26:42;;;;;;;13.70;10.25;;;28.70;74.20;;;;;;5035692;28;20044;-68
2022/08/15 11:29:08;;;;;;;11.95;10.75;;;28.50;79.20;;;;;;5036559;28;20134;-68
2022/08/15 11:31:43;;;;;;;13.13;11.80;;;28.40;86.30;;;;;;5017913;28;20501;-69
2022/08/15 11:34:29;;;;;;;11.38;10.27;;;28.30;90.90;;;;;;5035562;28;20465;-70
2022/08/15 11:37:02;;;;;;;11.48;10.40;;;28.30;93.00;;;;;;5035866;28;20068;-69
2022/08/15 11:39:31;;;;;;;13.55;11.98;;;28.20;93.90;;;;;;5035652;28;20052;-68
2022/08/15 11:42:03;;;;;;;12.73;10.93;;;28.30;94.00;;;;;;5035116;28;20053;-68
2022/08/15 11:44:39;;;;;;;14.25;11.05;;;28.30;95.30;;;;;;5035065;28;20048;-68
2022/08/15 11:47:06;;;;;;;15.30;13.60;;;28.40;95.50;;;;;;5018853;28;20607;-68
2022/08/15 11:49:45;;;;;;;16.48;12.77;;;28.40;95.00;;;;;;5035875;28;20042;-69
2022/08/15 11:52:11;;;;;;;14.98;12.63;;;28.60;96.20;;;;;;5035551;28;20045;-69
2022/08/15 11:54:36;;;;;;;14.45;12.57;;;28.70;95.50;;;;;;5034858;28;20401;-69
2022/08/15 11:57:06;;;;;;;13.65;12.38;;;28.80;95.00;;;;;;5034563;28;20045;-69
2022/08/15 11:59:38;;;;;;;18.52;11.98;;;29.00;93.80;;;;;;5034715;28;20087;-68
2022/08/15 12:02:03;;;;;;;14.93;11.90;;;29.00;93.20;;;;;;5034792;28;20045;-68
2022/08/15 12:04:32;;;;;;;14.65;11.63;;;29.00;92.60;;;;;;5034980;28;20087;-67
2022/08/15 12:07:13;;;;;;;12.82;10.70;;;29.00;92.20;;;;;;5035126;28;20095;-69
2022/08/15 12:09:47;;;;;;;13.35;10.13;;;29.00;92.20;;;;;;5017668;28;20477;-69
2022/08/15 12:12:21;;;;;;;;;;;29.00;92.30;;;;;;5035034;28;20041;-69
2022/08/15 12:14:47;;;;;;;13.68;12.18;;;28.90;91.90;;;;;;5035337;28;19932;-73
2022/08/15 12:17:28;;;;;;;16.75;10.93;;;28.90;91.70;;;;;;5034085;28;20037;-69
2022/08/15 12:19:55;;;;;;;14.70;13.32;;;29.00;91.60;;;;;;5034992;28;20132;-73
2022/08/15 12:22:33;;;;;;;13.18;11.88;;;29.00;91.20;;;;;;5034419;28;20053;-73
2022/08/15 12:25:00;;;;;;;13.63;12.13;;;28.90;91.00;;;;;;5033984;28;20519;-72
2022/08/15 12:27:26;;;;;;;18.15;11.70;;;28.90;90.90;;;;;;5034221;28;20088;-72
2022/08/15 12:29:52;;;;;;;15.07;13.63;;;28.90;91.00;;;;;;5033456;28;20037;-72
2022/08/15 12:32:19;;;;;;;16.95;12.48;;;28.80;90.50;;;;;;5034206;28;20428;-68
2022/08/15 12:34:47;;;;;;;16.77;13.60;;;28.80;90.50;;;;;;5016666;28;20057;-73
2022/08/15 12:37:20;;;;;;;15.20;12.23;;;28.70;91.30;;;;;;5034126;28;20041;-73
2022/08/15 12:39:49;;;;;;;10.05;7.13;;;28.60;91.90;;;;;;5034537;28;20050;-75
2022/08/15 12:42:20;;;;;;;11.75;6.57;;;28.50;90.30;;;;;;5034097;28;20144;-74
2022/08/15 12:44:48;;;;;;;11.65;5.75;;;28.50;88.30;;;;;;5016305;28;20143;-73
2022/08/15 12:47:15;;;;;;;14.27;5.60;;;28.40;86.20;;;;;;5034568;28;20050;-73
2022/08/15 12:49:40;;;;;;;8.38;5.43;;;28.50;85.70;;;;;;5033959;28;20079;-73
2022/08/15 12:52:06;;;;;;;8.80;5.95;;;28.50;85.30;;;;;;5033910;28;20080;-73
2022/08/15 12:54:32;;;;;;;9.98;5.72;;;28.60;84.60;;;;;;5016260;28;20045;-74
2022/08/15 12:56:58;;;;;;;8.80;5.10;;;28.70;84.00;;;;;;5033743;28;20060;-73
2022/08/15 12:59:23;;;;;;;9.18;5.20;;;28.80;82.80;;;;;;5034532;28;20080;-73
2022/08/15 13:01:50;;;;;;;10.65;4.85;;;28.90;81.40;;;;;;5033776;28;20041;-73
2022/08/15 13:04:16;;;;;;;7.68;4.78;;;28.90;80.10;;;;;;5033703;28;20049;-73
2022/08/15 13:06:49;;;;;;;8.00;4.85;;;28.90;78.30;;;;;;5033668;28;20086;-68
2022/08/15 13:09:17;;;;;;;8.38;5.07;;;29.00;76.40;;;;;;5033599;28;20045;-67
2022/08/15 13:11:46;;;;;;;8.25;4.43;;;29.00;74.60;;;;;;5033620;28;20053;-67
2022/08/15 13:14:14;;;;;;;8.88;4.38;;;29.00;74.00;;;;;;5034077;28;20049;-67